createdAt,value
2023-03-12T00:00:59.352Z,77201.06
2023-03-12T00:03:36.608Z,77192.97
2023-03-12T00:06:10.902Z,77201.06
2023-03-12T00:08:42.863Z,77201.06
2023-03-12T00:11:12.757Z,77201.06
2023-03-12T00:13:44.182Z,77201.06
2023-03-12T00:16:17.851Z,77209.19
2023-03-12T00:18:52.629Z,77197.03
2023-03-12T00:21:24.466Z,77213.25
2023-03-12T00:23:53.917Z,77205.13
2023-03-12T00:26:27.020Z,77197.03
2023-03-12T00:28:58.177Z,77180.81
2023-03-12T00:31:31.024Z,77176.75
2023-03-12T00:34:04.249Z,77160.53
2023-03-12T00:36:33.500Z,77160.53
2023-03-12T00:39:05.535Z,77180.81
2023-03-12T00:41:36.441Z,77176.75
2023-03-12T00:44:05.836Z,77172.69
2023-03-12T00:46:36.808Z,77176.75
2023-03-12T00:49:08.120Z,77180.81
2023-03-12T00:51:39.177Z,77180.81
2023-03-12T00:54:12.860Z,77180.81
2023-03-12T00:56:41.847Z,77180.81
2023-03-12T00:59:13.165Z,77180.81
2023-03-12T01:01:43.146Z,77176.75
2023-03-12T01:04:14.942Z,77188.91
2023-03-12T01:06:43.767Z,77180.81
2023-03-12T01:09:15.127Z,77176.75
2023-03-12T01:11:44.293Z,77188.91
2023-03-12T01:14:15.501Z,77192.97
2023-03-12T01:16:44.429Z,77192.97
2023-03-12T01:19:15.739Z,77180.81
2023-03-12T01:21:42.667Z,77182.84
2023-03-12T01:24:13.840Z,77180.81
2023-03-12T01:26:44.054Z,77180.81
2023-03-12T01:29:15.263Z,77174.72
2023-03-12T01:31:42.183Z,77176.75
2023-03-12T01:34:14.414Z,77176.75
2023-03-12T01:36:45.096Z,77168.63
2023-03-12T01:39:17.000Z,77164.59
2023-03-12T01:41:43.932Z,77156.47
2023-03-12T01:44:16.898Z,77150.41
2023-03-12T01:46:46.208Z,77148.38
2023-03-12T01:49:29.103Z,77136.19
2023-03-12T01:52:06.141Z,77136.19
2023-03-12T01:54:46.992Z,77128.09
2023-03-12T01:57:45.748Z,77119.97
2023-03-12T02:00:28.772Z,77115.94
2023-03-12T02:03:06.102Z,77109.84
2023-03-12T02:05:47.127Z,77111.88
2023-03-12T02:08:19.744Z,77103.75
2023-03-12T02:10:49.628Z,77087.53
2023-03-12T02:13:21.268Z,77103.75
2023-03-12T02:15:52.582Z,77103.75
2023-03-12T02:18:23.784Z,77091.59
2023-03-12T02:20:58.144Z,77093.63
2023-03-12T02:23:56.919Z,77091.59
2023-03-12T02:26:30.157Z,77089.56
2023-03-12T02:29:03.114Z,77091.59
2023-03-12T02:31:45.340Z,77099.72
2023-03-12T02:34:16.690Z,77099.72
2023-03-12T02:36:50.573Z,77099.72
2023-03-12T02:39:19.696Z,77087.53
2023-03-12T02:42:02.526Z,77091.59
2023-03-12T02:44:33.494Z,77079.44
2023-03-12T02:47:05.581Z,77077.41
2023-03-12T02:49:37.519Z,77079.44
2023-03-12T02:52:08.785Z,77079.44
2023-03-12T02:54:38.884Z,77091.59
2023-03-12T02:57:08.140Z,77079.44
2023-03-12T02:59:41.796Z,77091.59
2023-03-12T03:02:12.736Z,77087.53
2023-03-12T03:04:43.789Z,77087.53
2023-03-12T03:07:16.937Z,77091.59
2023-03-12T03:09:48.145Z,77099.72
2023-03-12T03:12:17.593Z,77095.66
2023-03-12T03:14:48.637Z,77099.72
2023-03-12T03:17:20.393Z,77087.53
2023-03-12T03:19:51.215Z,77087.53
2023-03-12T03:22:24.103Z,77089.56
2023-03-12T03:24:56.082Z,77091.59
2023-03-12T03:27:27.462Z,77091.59
2023-03-12T03:29:58.360Z,77087.53
2023-03-12T03:32:28.581Z,77079.44
2023-03-12T03:34:59.642Z,77071.31
2023-03-12T03:37:29.216Z,77063.22
2023-03-12T03:40:00.460Z,77071.31
2023-03-12T03:42:29.674Z,77087.53
2023-03-12T03:45:00.903Z,77079.44
2023-03-12T03:47:30.187Z,77075.38
2023-03-12T03:50:01.246Z,77075.38
2023-03-12T03:52:31.301Z,77075.38
2023-03-12T03:55:00.439Z,77083.50
2023-03-12T03:57:33.424Z,77087.53
2023-03-12T04:00:11.539Z,77087.53
2023-03-12T04:02:45.545Z,77081.47
2023-03-12T04:05:21.440Z,77095.66
2023-03-12T04:07:53.430Z,77095.66
2023-03-12T04:10:27.453Z,77089.56
2023-03-12T04:12:56.504Z,77095.66
2023-03-12T04:15:27.636Z,77107.81
2023-03-12T04:17:59.339Z,77089.56
2023-03-12T04:20:31.241Z,77111.88
2023-03-12T04:23:01.376Z,77097.69
2023-03-12T04:25:33.108Z,77101.72
2023-03-12T04:28:02.362Z,77111.88
2023-03-12T04:30:34.211Z,77089.56
2023-03-12T04:33:03.391Z,77103.75
2023-03-12T04:35:36.604Z,77103.75
2023-03-12T04:38:05.945Z,77103.75
2023-03-12T04:40:38.972Z,77099.72
2023-03-12T04:43:10.366Z,77093.63
2023-03-12T04:45:41.401Z,77099.72
2023-03-12T04:48:10.637Z,77089.56
2023-03-12T04:50:41.786Z,77081.47
2023-03-12T04:53:11.467Z,77083.50
2023-03-12T04:55:42.778Z,77091.59
2023-03-12T04:58:12.087Z,77089.56
2023-03-12T05:00:44.220Z,77091.59
2023-03-12T05:03:13.821Z,77083.50
2023-03-12T05:05:46.455Z,77085.50
2023-03-12T05:08:16.150Z,77079.44
2023-03-12T05:10:47.464Z,77073.34
2023-03-12T05:13:22.779Z,77083.50
2023-03-12T05:15:57.842Z,77087.53
2023-03-12T05:18:27.054Z,77083.50
2023-03-12T05:21:03.645Z,77083.50
2023-03-12T05:23:35.988Z,77091.59
2023-03-12T05:26:06.619Z,77091.59
2023-03-12T05:28:38.211Z,77087.53
2023-03-12T05:31:13.381Z,77079.44
2023-03-12T05:33:46.198Z,77083.50
2023-03-12T05:36:18.491Z,77081.47
2023-03-12T05:38:48.006Z,77087.53
2023-03-12T05:41:25.098Z,77087.53
2023-03-12T05:44:00.214Z,77083.50
2023-03-12T05:46:31.540Z,77087.53
2023-03-12T05:49:02.947Z,77089.56
2023-03-12T05:51:35.901Z,77075.38
2023-03-12T05:54:07.985Z,77083.50
2023-03-12T05:56:39.741Z,77075.38
2023-03-12T05:59:10.810Z,77067.28
2023-03-12T06:01:44.029Z,77075.38
2023-03-12T06:04:13.498Z,77071.31
2023-03-12T06:06:42.471Z,77075.38
2023-03-12T06:09:13.878Z,77077.41
2023-03-12T06:11:42.874Z,77079.44
2023-03-12T06:14:15.036Z,77073.34
2023-03-12T06:16:46.375Z,77071.31
2023-03-12T06:19:15.627Z,77075.38
2023-03-12T06:21:44.812Z,77081.47
2023-03-12T06:24:16.642Z,77087.53
2023-03-12T06:27:02.091Z,77091.59
2023-03-12T06:29:31.310Z,77071.31
2023-03-12T06:32:02.337Z,77075.38
2023-03-12T06:34:31.525Z,77061.19
2023-03-12T06:37:04.649Z,77051.06
2023-03-12T06:39:35.854Z,77057.13
2023-03-12T06:42:07.946Z,77034.84
2023-03-12T06:44:37.276Z,77016.59
2023-03-12T06:47:08.242Z,77018.63
2023-03-12T06:49:40.231Z,77040.91
2023-03-12T06:52:11.123Z,77059.16
2023-03-12T06:54:40.313Z,77038.88
2023-03-12T06:57:11.411Z,77055.09
2023-03-12T06:59:40.508Z,77059.16
2023-03-12T07:02:14.951Z,77075.38
2023-03-12T07:04:44.563Z,77059.16
2023-03-12T07:07:15.577Z,77055.09
2023-03-12T07:09:44.750Z,77059.16
2023-03-12T07:12:15.797Z,77063.22
2023-03-12T07:14:45.118Z,77055.09
2023-03-12T07:17:16.164Z,77059.16
2023-03-12T07:19:45.365Z,77047.00
2023-03-12T07:22:16.660Z,77038.88
2023-03-12T07:24:47.964Z,77030.78
2023-03-12T07:27:19.708Z,77034.84
2023-03-12T07:29:48.947Z,77047.00
2023-03-12T07:32:17.848Z,77030.78
2023-03-12T07:34:49.066Z,77032.81
2023-03-12T07:37:22.382Z,77026.72
2023-03-12T07:39:55.298Z,77034.84
2023-03-12T07:42:26.471Z,77055.09
2023-03-12T07:44:59.218Z,77030.78
2023-03-12T07:47:28.298Z,77038.88
2023-03-12T07:49:59.579Z,77034.84
2023-03-12T07:52:30.640Z,77020.63
2023-03-12T07:55:02.053Z,77014.56
2023-03-12T07:57:35.355Z,77006.44
2023-03-12T08:00:07.386Z,76984.16
2023-03-12T08:02:41.999Z,76988.19
2023-03-12T08:05:11.543Z,76994.28
2023-03-12T08:07:42.637Z,76994.28
2023-03-12T08:10:11.846Z,76969.94
2023-03-12T08:12:43.129Z,76984.16
2023-03-12T08:15:15.733Z,76953.75
2023-03-12T08:17:46.949Z,76965.91
2023-03-12T08:20:17.330Z,76947.66
2023-03-12T08:22:48.564Z,76941.56
2023-03-12T08:25:16.139Z,76925.34
2023-03-12T08:27:47.051Z,76909.13
2023-03-12T08:30:16.569Z,76913.19
2023-03-12T08:32:47.606Z,76896.97
2023-03-12T08:35:16.809Z,76882.78
2023-03-12T08:37:47.892Z,76884.81
2023-03-12T08:40:17.317Z,76905.09
2023-03-12T08:42:48.276Z,76921.31
2023-03-12T08:45:19.692Z,76921.31
2023-03-12T08:47:48.641Z,76921.31
2023-03-12T08:50:20.037Z,76925.34
2023-03-12T08:52:49.263Z,76909.13
2023-03-12T08:55:20.638Z,76917.25
2023-03-12T08:57:51.556Z,76913.19
2023-03-12T09:00:23.309Z,76921.31
2023-03-12T09:02:53.723Z,76929.41
2023-03-12T09:05:24.988Z,76957.78
2023-03-12T09:07:53.921Z,76953.75
2023-03-12T09:10:30.646Z,76945.63
2023-03-12T09:13:00.232Z,76974.00
2023-03-12T09:15:35.473Z,76974.00
2023-03-12T09:18:06.576Z,76974.00
2023-03-12T09:20:37.795Z,76990.22
2023-03-12T09:23:08.943Z,76998.34
2023-03-12T09:25:40.353Z,76998.34
2023-03-12T09:28:11.626Z,76965.91
2023-03-12T09:30:41.513Z,76955.75
2023-03-12T09:33:13.301Z,76961.84
2023-03-12T09:35:43.222Z,76967.94
2023-03-12T09:38:16.873Z,76953.75
2023-03-12T09:40:49.685Z,76939.53
2023-03-12T09:43:38.359Z,76933.47
2023-03-12T09:46:20.573Z,76909.13
2023-03-12T09:48:54.067Z,76896.97
2023-03-12T09:51:43.268Z,76888.88
2023-03-12T09:54:41.386Z,76901.03
2023-03-12T09:57:26.216Z,76890.88
2023-03-12T09:59:59.199Z,76901.03
2023-03-12T10:02:57.489Z,76927.38
2023-03-12T10:05:37.402Z,76896.97
2023-03-12T10:08:26.863Z,76896.97
2023-03-12T10:11:26.511Z,76909.13
2023-03-12T10:14:32.542Z,76945.63
2023-03-12T10:17:13.858Z,76923.31
2023-03-12T10:20:03.108Z,76961.84
2023-03-12T10:23:00.131Z,76949.69
2023-03-12T10:25:41.976Z,76933.47
2023-03-12T10:28:24.004Z,76937.53
2023-03-12T10:31:01.301Z,76921.31
2023-03-12T10:33:57.245Z,76949.69
2023-03-12T10:36:37.014Z,76957.78
2023-03-12T10:39:20.014Z,76945.63
2023-03-12T10:41:51.624Z,76961.84
2023-03-12T10:44:22.330Z,76994.28
2023-03-12T10:46:57.717Z,76982.13
2023-03-12T10:49:31.740Z,76965.91
2023-03-12T10:52:20.744Z,76969.94
2023-03-12T10:54:54.284Z,76969.94
2023-03-12T10:57:42.903Z,76982.13
2023-03-12T11:00:25.808Z,76949.69
2023-03-12T11:03:02.043Z,76923.31
2023-03-12T11:05:52.050Z,76913.19
2023-03-12T11:08:29.740Z,76909.13
2023-03-12T11:11:02.645Z,76884.81
2023-03-12T11:13:34.122Z,76901.03
2023-03-12T11:16:21.129Z,76935.50
2023-03-12T11:19:04.133Z,76961.84
2023-03-12T11:21:39.194Z,76957.78
2023-03-12T11:24:16.565Z,76957.78
2023-03-12T11:26:58.752Z,76951.72
2023-03-12T11:29:38.735Z,76921.31
2023-03-12T11:32:31.466Z,76905.09
2023-03-12T11:35:03.362Z,76884.81
2023-03-12T11:37:47.420Z,76884.81
2023-03-12T11:40:23.265Z,76884.81
2023-03-12T11:43:39.913Z,76856.44
2023-03-12T11:46:19.971Z,76842.22
2023-03-12T11:49:01.053Z,76791.56
2023-03-12T11:51:41.276Z,76746.97
2023-03-12T11:54:26.099Z,76712.50
2023-03-12T11:57:08.207Z,76690.19
2023-03-12T12:00:25.586Z,76706.41
2023-03-12T12:03:15.092Z,76730.75
2023-03-12T12:06:00.686Z,76722.63
2023-03-12T12:08:49.100Z,76704.38
2023-03-12T12:11:19.939Z,76742.91
2023-03-12T12:14:15.379Z,76738.84
2023-03-12T12:16:52.846Z,76740.88
2023-03-12T12:19:46.975Z,76767.22
2023-03-12T12:22:40.006Z,76751.00
2023-03-12T12:25:23.643Z,76755.06
2023-03-12T12:27:58.384Z,76761.16
2023-03-12T12:30:51.005Z,76759.13
2023-03-12T12:33:37.966Z,76732.75
2023-03-12T12:36:12.332Z,76694.25
2023-03-12T12:38:51.752Z,76688.16
2023-03-12T12:41:26.459Z,76669.94
2023-03-12T12:44:05.054Z,76698.31
2023-03-12T12:46:48.401Z,76744.94
2023-03-12T12:49:33.011Z,76734.78
2023-03-12T12:52:07.343Z,76730.75
2023-03-12T12:54:50.556Z,76742.91
2023-03-12T12:57:58.828Z,76748.97
2023-03-12T13:00:47.600Z,76751.00
2023-03-12T13:03:22.480Z,76771.28
2023-03-12T13:06:04.122Z,76767.22
2023-03-12T13:08:56.752Z,76809.81
2023-03-12T13:11:43.473Z,76803.72
2023-03-12T13:14:21.615Z,76783.44
2023-03-12T13:17:07.389Z,76775.34
2023-03-12T13:19:51.991Z,76742.91
2023-03-12T13:22:44.527Z,76783.44
2023-03-12T13:25:23.976Z,76811.81
2023-03-12T13:28:32.335Z,76821.97
2023-03-12T13:31:29.633Z,76803.72
2023-03-12T13:34:11.107Z,76807.78
2023-03-12T13:36:40.295Z,76795.59
2023-03-12T13:39:35.059Z,76799.66
2023-03-12T13:42:35.954Z,76787.50
2023-03-12T13:45:29.430Z,76824.00
2023-03-12T13:48:06.117Z,76826.00
2023-03-12T13:50:50.627Z,76842.22
2023-03-12T13:53:27.276Z,76864.53
2023-03-12T13:56:15.142Z,76850.34
2023-03-12T13:59:08.157Z,76862.50
2023-03-12T14:01:41.757Z,76862.50
2023-03-12T14:04:17.457Z,76913.19
2023-03-12T14:06:55.173Z,76917.25
2023-03-12T14:09:26.700Z,76933.47
2023-03-12T14:12:10.851Z,76937.53
2023-03-12T14:15:08.432Z,76933.47
2023-03-12T14:17:38.702Z,76921.31
2023-03-12T14:20:18.791Z,76925.34
2023-03-12T14:22:57.832Z,76901.03
2023-03-12T14:25:37.557Z,76905.09
2023-03-12T14:28:24.548Z,76896.97
2023-03-12T14:31:05.788Z,76905.09
2023-03-12T14:33:45.349Z,76886.84
2023-03-12T14:36:21.199Z,76870.63
2023-03-12T14:38:50.362Z,76870.63
2023-03-12T14:41:36.815Z,76852.38
2023-03-12T14:44:23.377Z,76884.81
2023-03-12T14:47:03.330Z,76896.97
2023-03-12T14:49:34.595Z,76911.16
2023-03-12T14:52:04.431Z,76909.13
2023-03-12T14:54:33.665Z,76909.13
2023-03-12T14:57:07.144Z,76913.19
2023-03-12T14:59:41.009Z,76929.41
2023-03-12T15:02:19.865Z,76937.53
2023-03-12T15:04:54.682Z,76957.78
2023-03-12T15:07:32.939Z,76961.84
2023-03-12T15:10:09.804Z,76990.22
2023-03-12T15:12:39.339Z,76990.22
2023-03-12T15:15:19.843Z,77002.41
2023-03-12T15:17:50.927Z,76992.25
2023-03-12T15:20:24.970Z,77006.44
2023-03-12T15:22:54.949Z,77014.56
2023-03-12T15:25:29.617Z,77006.44
2023-03-12T15:28:02.991Z,77010.50
2023-03-12T15:30:35.201Z,76998.34
2023-03-12T15:33:12.488Z,77002.41
2023-03-12T15:35:44.057Z,76998.34
2023-03-12T15:38:22.578Z,77010.50
2023-03-12T15:40:54.038Z,77010.50
2023-03-12T15:43:27.604Z,77006.44
2023-03-12T15:46:09.489Z,77010.50
2023-03-12T15:48:42.452Z,77018.63
2023-03-12T15:51:28.132Z,77020.63
2023-03-12T15:54:23.792Z,77026.72
2023-03-12T15:56:53.111Z,77028.75
2023-03-12T15:59:30.049Z,77026.72
2023-03-12T16:01:59.069Z,77034.84
2023-03-12T16:04:32.303Z,77040.91
2023-03-12T16:07:04.634Z,77040.91
2023-03-12T16:09:37.343Z,77036.84
2023-03-12T16:12:06.705Z,77051.06
2023-03-12T16:14:39.192Z,77044.97
2023-03-12T16:17:14.251Z,77057.13
2023-03-12T16:19:45.678Z,77063.22
2023-03-12T16:22:14.762Z,77067.28
2023-03-12T16:24:45.974Z,77067.28
2023-03-12T16:27:23.741Z,77079.44
2023-03-12T16:30:03.742Z,77091.59
2023-03-12T16:32:33.028Z,77091.59
2023-03-12T16:35:04.317Z,77087.53
2023-03-12T16:37:35.247Z,77091.59
2023-03-12T16:40:08.377Z,77097.69
2023-03-12T16:42:42.625Z,77113.91
2023-03-12T16:45:15.163Z,77119.97
2023-03-12T16:47:47.439Z,77124.03
2023-03-12T16:50:22.292Z,77138.22
2023-03-12T16:52:52.086Z,77152.41
2023-03-12T16:55:27.504Z,77148.38
2023-03-12T16:58:00.377Z,77160.53
2023-03-12T17:00:35.277Z,77160.53
2023-03-12T17:03:06.487Z,77168.63
2023-03-12T17:05:37.651Z,77184.84
2023-03-12T17:08:06.548Z,77188.91
2023-03-12T17:10:35.784Z,77188.91
2023-03-12T17:13:07.142Z,77195.00
2023-03-12T17:15:38.465Z,77192.97
2023-03-12T17:18:07.390Z,77201.06
2023-03-12T17:20:36.653Z,77205.13
2023-03-12T17:23:08.619Z,77209.19
2023-03-12T17:25:41.071Z,77213.25
2023-03-12T17:28:12.504Z,77211.22
2023-03-12T17:30:42.185Z,77217.28
2023-03-12T17:33:15.905Z,77209.19
2023-03-12T17:35:45.665Z,77213.25
2023-03-12T17:38:16.658Z,77205.13
2023-03-12T17:40:45.975Z,77197.03
2023-03-12T17:43:17.072Z,77209.19
2023-03-12T17:45:46.444Z,77213.25
2023-03-12T17:48:18.524Z,77217.28
2023-03-12T17:50:49.837Z,77225.41
2023-03-12T17:53:17.810Z,77225.41
2023-03-12T17:55:51.078Z,77225.41
2023-03-12T17:58:21.983Z,77217.28
2023-03-12T18:00:53.195Z,77225.41
2023-03-12T18:03:22.201Z,77223.38
2023-03-12T18:05:51.789Z,77225.41
2023-03-12T18:08:23.125Z,77229.47
2023-03-12T18:10:52.524Z,77241.63
2023-03-12T18:13:21.663Z,77241.63
2023-03-12T18:15:58.641Z,77249.75
2023-03-12T18:18:27.763Z,77270.00
2023-03-12T18:20:59.198Z,77265.97
2023-03-12T18:23:30.353Z,77272.03
2023-03-12T18:25:59.670Z,77282.19
2023-03-12T18:28:30.760Z,77286.22
2023-03-12T18:31:00.098Z,77290.28
2023-03-12T18:33:32.764Z,77306.50
2023-03-12T18:36:06.793Z,77310.56
2023-03-12T18:38:35.831Z,77310.56
2023-03-12T18:41:14.710Z,77318.66
2023-03-12T18:43:43.747Z,77318.66
2023-03-12T18:46:15.770Z,77314.63
2023-03-12T18:48:44.781Z,77318.66
2023-03-12T18:51:16.014Z,77314.63
2023-03-12T18:53:48.096Z,77318.66
2023-03-12T18:56:19.337Z,77320.69
2023-03-12T18:58:50.214Z,77316.66
2023-03-12T19:01:19.613Z,77318.66
2023-03-12T19:03:50.739Z,77306.50
2023-03-12T19:06:22.003Z,77310.56
2023-03-12T19:08:51.071Z,77310.56
2023-03-12T19:11:20.259Z,77316.66
2023-03-12T19:13:54.466Z,77314.63
2023-03-12T19:16:23.821Z,77322.72
2023-03-12T19:18:54.937Z,77302.44
2023-03-12T19:21:26.692Z,77310.56
2023-03-12T19:23:55.704Z,77308.53
2023-03-12T19:26:27.131Z,77322.72
2023-03-12T19:28:58.129Z,77318.66
2023-03-12T19:31:27.472Z,77332.88
2023-03-12T19:33:58.475Z,77328.81
2023-03-12T19:36:27.702Z,77326.78
2023-03-12T19:38:59.737Z,77330.84
2023-03-12T19:41:31.096Z,77338.94
2023-03-12T19:44:02.065Z,77332.88
2023-03-12T19:46:31.205Z,77336.91
2023-03-12T19:49:02.128Z,77343.00
2023-03-12T19:51:31.286Z,77343.00
2023-03-12T19:54:02.502Z,77347.06
2023-03-12T19:56:33.736Z,77349.09
2023-03-12T19:59:04.845Z,77351.13
2023-03-12T20:01:34.368Z,77351.13
2023-03-12T20:04:09.867Z,77359.22
2023-03-12T20:06:41.273Z,77355.16
2023-03-12T20:09:08.170Z,77363.28
2023-03-12T20:11:39.823Z,77363.28
2023-03-12T20:14:10.790Z,77367.34
2023-03-12T20:16:42.197Z,77371.38
2023-03-12T20:19:11.092Z,77383.56
2023-03-12T20:21:42.323Z,77385.59
2023-03-12T20:24:11.604Z,77381.53
2023-03-12T20:26:43.380Z,77387.59
2023-03-12T20:29:14.292Z,77391.66
2023-03-12T20:31:43.820Z,77403.84
2023-03-12T20:34:16.851Z,77403.84
2023-03-12T20:36:46.096Z,77413.97
2023-03-12T20:39:15.249Z,77420.06
2023-03-12T20:41:44.408Z,77420.06
2023-03-12T20:44:15.653Z,77420.06
2023-03-12T20:46:44.797Z,77420.06
2023-03-12T20:49:13.772Z,77416.00
2023-03-12T20:51:44.610Z,77416.00
2023-03-12T20:54:15.763Z,77424.09
2023-03-12T20:56:46.904Z,77424.09
2023-03-12T20:59:19.943Z,77424.09
2023-03-12T21:01:51.157Z,77428.16
2023-03-12T21:04:22.195Z,77432.22
2023-03-12T21:06:53.719Z,77440.31
2023-03-12T21:09:23.387Z,77440.31
2023-03-12T21:11:54.573Z,77444.38
2023-03-12T21:14:23.538Z,77444.38
2023-03-12T21:16:52.904Z,77444.38
2023-03-12T21:19:24.243Z,77448.44
2023-03-12T21:21:56.108Z,77452.50
2023-03-12T21:24:25.204Z,77444.38
2023-03-12T21:26:56.426Z,77434.25
2023-03-12T21:29:27.618Z,77440.31
2023-03-12T21:31:57.503Z,77446.41
2023-03-12T21:34:31.239Z,77436.28
2023-03-12T21:37:00.626Z,77432.22
2023-03-12T21:39:31.548Z,77432.22
2023-03-12T21:42:00.746Z,77434.25
2023-03-12T21:44:33.703Z,77430.19
2023-03-12T21:47:04.075Z,77422.06
2023-03-12T21:49:36.813Z,77416.00
2023-03-12T21:52:08.020Z,77413.97
2023-03-12T21:54:37.382Z,77407.88
2023-03-12T21:57:08.623Z,77416.00
2023-03-12T21:59:37.551Z,77407.88
2023-03-12T22:02:09.168Z,77403.84
2023-03-12T22:04:40.403Z,77399.78
2023-03-12T22:07:09.612Z,77403.84
2023-03-12T22:09:40.521Z,77391.66
2023-03-12T22:12:09.764Z,77399.78
2023-03-12T22:14:40.899Z,77409.91
2023-03-12T22:17:10.062Z,77416.00
2023-03-12T22:19:40.962Z,77424.09
2023-03-12T22:22:13.619Z,77420.06
2023-03-12T22:24:44.529Z,77428.16
2023-03-12T22:27:15.874Z,77436.28
2023-03-12T22:29:44.850Z,77436.28
2023-03-12T22:32:16.235Z,77418.03
2023-03-12T22:34:45.131Z,77416.00
2023-03-12T22:37:16.307Z,77411.94
2023-03-12T22:39:45.229Z,77399.78
2023-03-12T22:42:16.487Z,77387.59
2023-03-12T22:44:43.364Z,77383.56
2023-03-12T22:47:16.795Z,77387.59
2023-03-12T22:49:46.905Z,77470.75
2023-03-12T22:52:18.370Z,77367.34
2023-03-12T22:54:49.284Z,77359.22
2023-03-12T22:57:18.712Z,77355.16
2023-03-12T22:59:50.210Z,77347.06
2023-03-12T23:02:21.376Z,77343.00
2023-03-12T23:04:50.433Z,77336.91
2023-03-12T23:07:21.694Z,77330.84
2023-03-12T23:09:50.636Z,77326.78
2023-03-12T23:12:21.800Z,77326.78
2023-03-12T23:14:50.826Z,77326.78
2023-03-12T23:17:22.308Z,77322.72
2023-03-12T23:19:51.180Z,77318.66
2023-03-12T23:22:22.534Z,77308.53
2023-03-12T23:24:51.524Z,77306.50
2023-03-12T23:27:22.991Z,77302.44
2023-03-12T23:29:51.922Z,77302.44
2023-03-12T23:32:23.211Z,77306.50
2023-03-12T23:34:52.334Z,77302.44
2023-03-12T23:37:23.645Z,77290.28
2023-03-12T23:39:55.033Z,77272.03
2023-03-12T23:42:29.280Z,77265.97
2023-03-12T23:44:58.380Z,77278.13
2023-03-12T23:47:31.588Z,77282.19
2023-03-12T23:50:00.540Z,77286.22
2023-03-12T23:52:31.711Z,77282.19
2023-03-12T23:55:00.674Z,77270.00
2023-03-12T23:57:31.949Z,77265.97
